sensor_id;sensor_type;location;lat;lon;timestamp;P1;durP1;ratioP1;P2;durP2;ratioP2
51852;SDS011;37894;53.172;6.598;2022-09-03T00:00:14;5.70;;;1.30;;
51852;SDS011;37894;53.172;6.598;2022-09-03T00:02:53;5.93;;;1.40;;
51852;SDS011;37894;53.172;6.598;2022-09-03T00:08:09;4.80;;;1.42;;
51852;SDS011;37894;53.172;6.598;2022-09-03T00:13:43;3.63;;;1.35;;
51852;SDS011;37894;53.172;6.598;2022-09-03T00:16:14;4.20;;;1.30;;
51852;SDS011;37894;53.172;6.598;2022-09-03T00:23:58;2.72;;;1.27;;
51852;SDS011;37894;53.172;6.598;2022-09-03T00:26:27;5.78;;;1.30;;
51852;SDS011;37894;53.172;6.598;2022-09-03T00:29:02;2.88;;;1.05;;
51852;SDS011;37894;53.172;6.598;2022-09-03T00:31:37;2.42;;;1.00;;
51852;SDS011;37894;53.172;6.598;2022-09-03T00:37:05;3.33;;;1.15;;
51852;SDS011;37894;53.172;6.598;2022-09-03T00:39:32;3.88;;;1.35;;
51852;SDS011;37894;53.172;6.598;2022-09-03T00:42:03;3.97;;;1.20;;
51852;SDS011;37894;53.172;6.598;2022-09-03T00:56:53;5.65;;;2.28;;
51852;SDS011;37894;53.172;6.598;2022-09-03T00:59:46;26.05;;;3.15;;
51852;SDS011;37894;53.172;6.598;2022-09-03T01:13:40;16.67;;;6.32;;
51852;SDS011;37894;53.172;6.598;2022-09-03T01:30:32;11.20;;;4.40;;
51852;SDS011;37894;53.172;6.598;2022-09-03T01:38:42;9.73;;;2.00;;
51852;SDS011;37894;53.172;6.598;2022-09-03T01:50:19;4.00;;;1.10;;
51852;SDS011;37894;53.172;6.598;2022-09-03T01:58:58;3.58;;;1.30;;
51852;SDS011;37894;53.172;6.598;2022-09-03T02:01:32;4.50;;;1.30;;
51852;SDS011;37894;53.172;6.598;2022-09-03T02:04:14;4.03;;;1.20;;
51852;SDS011;37894;53.172;6.598;2022-09-03T02:06:42;5.40;;;1.50;;
51852;SDS011;37894;53.172;6.598;2022-09-03T02:09:09;3.40;;;1.17;;
51852;SDS011;37894;53.172;6.598;2022-09-03T02:11:34;3.40;;;1.20;;
51852;SDS011;37894;53.172;6.598;2022-09-03T02:14:01;2.45;;;1.08;;
51852;SDS011;37894;53.172;6.598;2022-09-03T02:16:30;7.60;;;1.35;;
51852;SDS011;37894;53.172;6.598;2022-09-03T02:19:03;6.15;;;1.27;;
51852;SDS011;37894;53.172;6.598;2022-09-03T02:21:34;3.88;;;1.30;;
51852;SDS011;37894;53.172;6.598;2022-09-03T02:24:03;4.40;;;1.20;;
51852;SDS011;37894;53.172;6.598;2022-09-03T02:26:30;9.75;;;1.60;;
51852;SDS011;37894;53.172;6.598;2022-09-03T02:28:56;3.25;;;1.30;;
51852;SDS011;37894;53.172;6.598;2022-09-03T02:31:22;2.45;;;1.35;;
51852;SDS011;37894;53.172;6.598;2022-09-03T02:33:48;4.53;;;1.15;;
51852;SDS011;37894;53.172;6.598;2022-09-03T02:36:16;1.52;;;1.00;;
51852;SDS011;37894;53.172;6.598;2022-09-03T02:38:44;5.43;;;1.20;;
51852;SDS011;37894;53.172;6.598;2022-09-03T02:41:10;2.63;;;1.20;;
51852;SDS011;37894;53.172;6.598;2022-09-03T02:43:38;3.63;;;1.42;;
51852;SDS011;37894;53.172;6.598;2022-09-03T02:46:09;4.35;;;1.10;;
51852;SDS011;37894;53.172;6.598;2022-09-03T02:48:48;2.92;;;1.25;;
51852;SDS011;37894;53.172;6.598;2022-09-03T02:51:14;2.40;;;1.20;;
51852;SDS011;37894;53.172;6.598;2022-09-03T02:53:40;2.33;;;1.20;;
51852;SDS011;37894;53.172;6.598;2022-09-03T02:56:06;2.65;;;1.20;;
51852;SDS011;37894;53.172;6.598;2022-09-03T02:58:32;3.00;;;1.27;;
51852;SDS011;37894;53.172;6.598;2022-09-03T03:00:57;4.15;;;1.15;;
51852;SDS011;37894;53.172;6.598;2022-09-03T03:03:23;3.60;;;1.30;;
51852;SDS011;37894;53.172;6.598;2022-09-03T03:05:50;4.60;;;1.10;;
51852;SDS011;37894;53.172;6.598;2022-09-03T03:08:19;3.15;;;1.20;;
51852;SDS011;37894;53.172;6.598;2022-09-03T03:10:50;3.28;;;1.10;;
51852;SDS011;37894;53.172;6.598;2022-09-03T03:13:17;3.13;;;1.38;;
51852;SDS011;37894;53.172;6.598;2022-09-03T03:15:43;5.57;;;1.30;;
51852;SDS011;37894;53.172;6.598;2022-09-03T03:18:09;2.28;;;1.13;;
51852;SDS011;37894;53.172;6.598;2022-09-03T03:20:38;2.30;;;1.00;;
51852;SDS011;37894;53.172;6.598;2022-09-03T03:23:05;3.20;;;1.30;;
51852;SDS011;37894;53.172;6.598;2022-09-03T03:25:32;3.35;;;1.30;;
51852;SDS011;37894;53.172;6.598;2022-09-03T03:27:58;3.58;;;1.42;;
51852;SDS011;37894;53.172;6.598;2022-09-03T03:30:25;2.33;;;1.08;;
51852;SDS011;37894;53.172;6.598;2022-09-03T03:32:55;3.63;;;1.50;;
51852;SDS011;37894;53.172;6.598;2022-09-03T03:35:21;3.03;;;1.10;;
51852;SDS011;37894;53.172;6.598;2022-09-03T03:37:47;2.85;;;1.17;;
51852;SDS011;37894;53.172;6.598;2022-09-03T03:40:13;3.72;;;1.60;;
51852;SDS011;37894;53.172;6.598;2022-09-03T03:42:39;4.53;;;1.33;;
51852;SDS011;37894;53.172;6.598;2022-09-03T03:45:05;3.95;;;1.30;;
51852;SDS011;37894;53.172;6.598;2022-09-03T03:47:32;6.78;;;1.50;;
51852;SDS011;37894;53.172;6.598;2022-09-03T03:49:58;5.15;;;1.50;;
51852;SDS011;37894;53.172;6.598;2022-09-03T03:52:25;3.47;;;1.10;;
51852;SDS011;37894;53.172;6.598;2022-09-03T03:54:51;2.25;;;1.20;;
51852;SDS011;37894;53.172;6.598;2022-09-03T03:57:18;3.83;;;1.70;;
51852;SDS011;37894;53.172;6.598;2022-09-03T03:59:44;5.65;;;1.40;;
51852;SDS011;37894;53.172;6.598;2022-09-03T04:02:11;2.97;;;1.58;;
51852;SDS011;37894;53.172;6.598;2022-09-03T04:04:37;4.38;;;1.60;;
51852;SDS011;37894;53.172;6.598;2022-09-03T04:07:02;2.95;;;1.60;;
51852;SDS011;37894;53.172;6.598;2022-09-03T04:09:28;2.28;;;1.33;;
51852;SDS011;37894;53.172;6.598;2022-09-03T04:11:54;3.22;;;1.58;;
51852;SDS011;37894;53.172;6.598;2022-09-03T04:14:22;8.07;;;1.60;;
51852;SDS011;37894;53.172;6.598;2022-09-03T04:16:48;4.18;;;1.70;;
51852;SDS011;37894;53.172;6.598;2022-09-03T04:19:15;2.83;;;1.35;;
51852;SDS011;37894;53.172;6.598;2022-09-03T04:21:41;5.55;;;2.08;;
51852;SDS011;37894;53.172;6.598;2022-09-03T04:24:07;3.50;;;1.60;;
51852;SDS011;37894;53.172;6.598;2022-09-03T04:26:33;3.05;;;1.80;;
51852;SDS011;37894;53.172;6.598;2022-09-03T04:29:00;2.72;;;1.48;;
51852;SDS011;37894;53.172;6.598;2022-09-03T04:31:28;4.80;;;1.85;;
51852;SDS011;37894;53.172;6.598;2022-09-03T04:33:54;4.30;;;1.60;;
51852;SDS011;37894;53.172;6.598;2022-09-03T04:36:21;6.18;;;2.00;;
51852;SDS011;37894;53.172;6.598;2022-09-03T04:38:49;4.75;;;1.60;;
51852;SDS011;37894;53.172;6.598;2022-09-03T04:41:22;4.53;;;1.90;;
51852;SDS011;37894;53.172;6.598;2022-09-03T04:43:52;4.25;;;1.50;;
51852;SDS011;37894;53.172;6.598;2022-09-03T04:46:19;4.10;;;2.00;;
51852;SDS011;37894;53.172;6.598;2022-09-03T04:48:49;5.15;;;1.98;;
51852;SDS011;37894;53.172;6.598;2022-09-03T04:51:18;4.10;;;1.90;;
51852;SDS011;37894;53.172;6.598;2022-09-03T04:53:46;3.60;;;2.00;;
51852;SDS011;37894;53.172;6.598;2022-09-03T04:56:27;4.32;;;2.00;;
51852;SDS011;37894;53.172;6.598;2022-09-03T04:58:59;3.55;;;2.00;;
51852;SDS011;37894;53.172;6.598;2022-09-03T05:01:27;3.95;;;2.10;;
51852;SDS011;37894;53.172;6.598;2022-09-03T05:03:54;4.82;;;2.22;;
51852;SDS011;37894;53.172;6.598;2022-09-03T05:06:22;3.80;;;1.80;;
51852;SDS011;37894;53.172;6.598;2022-09-03T05:08:49;5.30;;;2.00;;
51852;SDS011;37894;53.172;6.598;2022-09-03T05:11:17;4.05;;;2.55;;
51852;SDS011;37894;53.172;6.598;2022-09-03T05:13:46;4.25;;;2.08;;
51852;SDS011;37894;53.172;6.598;2022-09-03T05:16:16;7.20;;;2.60;;
51852;SDS011;37894;53.172;6.598;2022-09-03T05:18:43;4.03;;;1.73;;
51852;SDS011;37894;53.172;6.598;2022-09-03T05:21:11;7.78;;;2.50;;
51852;SDS011;37894;53.172;6.598;2022-09-03T05:23:43;4.40;;;2.00;;
51852;SDS011;37894;53.172;6.598;2022-09-03T05:26:14;5.95;;;1.80;;
51852;SDS011;37894;53.172;6.598;2022-09-03T05:28:42;3.50;;;1.77;;
51852;SDS011;37894;53.172;6.598;2022-09-03T05:31:13;3.15;;;1.70;;
51852;SDS011;37894;53.172;6.598;2022-09-03T05:33:39;3.10;;;1.70;;
51852;SDS011;37894;53.172;6.598;2022-09-03T05:36:13;4.43;;;2.03;;
51852;SDS011;37894;53.172;6.598;2022-09-03T05:38:41;3.85;;;1.80;;
51852;SDS011;37894;53.172;6.598;2022-09-03T05:41:08;2.80;;;1.45;;
51852;SDS011;37894;53.172;6.598;2022-09-03T05:43:35;3.42;;;1.88;;
51852;SDS011;37894;53.172;6.598;2022-09-03T05:46:05;4.47;;;1.70;;
51852;SDS011;37894;53.172;6.598;2022-09-03T05:48:33;5.88;;;1.75;;
51852;SDS011;37894;53.172;6.598;2022-09-03T05:51:10;3.72;;;1.90;;
51852;SDS011;37894;53.172;6.598;2022-09-03T05:53:40;5.18;;;1.90;;
51852;SDS011;37894;53.172;6.598;2022-09-03T05:56:08;2.88;;;1.80;;
51852;SDS011;37894;53.172;6.598;2022-09-03T05:58:36;5.78;;;1.80;;
51852;SDS011;37894;53.172;6.598;2022-09-03T06:03:47;3.50;;;2.00;;
51852;SDS011;37894;53.172;6.598;2022-09-03T06:06:21;5.57;;;2.10;;
51852;SDS011;37894;53.172;6.598;2022-09-03T06:08:50;3.78;;;2.13;;
51852;SDS011;37894;53.172;6.598;2022-09-03T06:11:17;5.40;;;1.90;;
51852;SDS011;37894;53.172;6.598;2022-09-03T06:13:42;4.70;;;2.20;;
51852;SDS011;37894;53.172;6.598;2022-09-03T06:16:08;3.97;;;1.90;;
51852;SDS011;37894;53.172;6.598;2022-09-03T06:18:34;4.13;;;1.95;;
51852;SDS011;37894;53.172;6.598;2022-09-03T06:21:00;4.70;;;2.00;;
51852;SDS011;37894;53.172;6.598;2022-09-03T06:23:28;4.60;;;2.00;;
51852;SDS011;37894;53.172;6.598;2022-09-03T06:26:13;8.82;;;2.45;;
51852;SDS011;37894;53.172;6.598;2022-09-03T06:28:39;3.38;;;2.10;;
51852;SDS011;37894;53.172;6.598;2022-09-03T06:31:10;3.42;;;1.85;;
51852;SDS011;37894;53.172;6.598;2022-09-03T06:33:38;4.57;;;2.17;;
51852;SDS011;37894;53.172;6.598;2022-09-03T06:36:05;5.22;;;1.95;;
51852;SDS011;37894;53.172;6.598;2022-09-03T06:38:33;5.07;;;1.80;;
51852;SDS011;37894;53.172;6.598;2022-09-03T06:41:00;3.10;;;1.90;;
51852;SDS011;37894;53.172;6.598;2022-09-03T06:43:29;4.03;;;2.20;;
51852;SDS011;37894;53.172;6.598;2022-09-03T06:45:58;2.80;;;1.60;;
51852;SDS011;37894;53.172;6.598;2022-09-03T06:48:25;6.97;;;2.30;;
51852;SDS011;37894;53.172;6.598;2022-09-03T06:51:02;5.15;;;1.98;;
51852;SDS011;37894;53.172;6.598;2022-09-03T06:53:33;5.28;;;1.80;;
51852;SDS011;37894;53.172;6.598;2022-09-03T06:56:02;4.20;;;2.08;;
51852;SDS011;37894;53.172;6.598;2022-09-03T06:58:30;7.13;;;2.05;;
51852;SDS011;37894;53.172;6.598;2022-09-03T07:01:35;4.55;;;2.05;;
51852;SDS011;37894;53.172;6.598;2022-09-03T07:03:56;8.38;;;2.22;;
51852;SDS011;37894;53.172;6.598;2022-09-03T07:06:24;4.88;;;1.88;;
51852;SDS011;37894;53.172;6.598;2022-09-03T07:08:53;8.40;;;1.90;;
51852;SDS011;37894;53.172;6.598;2022-09-03T07:11:22;3.90;;;1.92;;
51852;SDS011;37894;53.172;6.598;2022-09-03T07:13:51;4.53;;;1.70;;
51852;SDS011;37894;53.172;6.598;2022-09-03T07:16:18;7.72;;;2.00;;
51852;SDS011;37894;53.172;6.598;2022-09-03T07:18:46;4.07;;;1.73;;
51852;SDS011;37894;53.172;6.598;2022-09-03T07:21:19;3.63;;;1.60;;
51852;SDS011;37894;53.172;6.598;2022-09-03T07:23:46;3.28;;;1.60;;
51852;SDS011;37894;53.172;6.598;2022-09-03T07:26:14;7.30;;;1.70;;
51852;SDS011;37894;53.172;6.598;2022-09-03T07:28:42;3.53;;;1.65;;
51852;SDS011;37894;53.172;6.598;2022-09-03T07:31:14;3.45;;;1.80;;
51852;SDS011;37894;53.172;6.598;2022-09-03T07:33:43;4.50;;;1.50;;
51852;SDS011;37894;53.172;6.598;2022-09-03T07:36:11;6.05;;;1.63;;
51852;SDS011;37894;53.172;6.598;2022-09-03T07:38:40;3.65;;;1.50;;
51852;SDS011;37894;53.172;6.598;2022-09-03T07:41:07;4.80;;;1.83;;
51852;SDS011;37894;53.172;6.598;2022-09-03T07:43:37;3.70;;;1.70;;
51852;SDS011;37894;53.172;6.598;2022-09-03T07:46:05;3.50;;;1.67;;
51852;SDS011;37894;53.172;6.598;2022-09-03T07:48:32;4.85;;;1.60;;
51852;SDS011;37894;53.172;6.598;2022-09-03T07:50:58;4.95;;;1.80;;
51852;SDS011;37894;53.172;6.598;2022-09-03T07:53:27;3.60;;;1.50;;
51852;SDS011;37894;53.172;6.598;2022-09-03T07:55:59;2.95;;;1.48;;
51852;SDS011;37894;53.172;6.598;2022-09-03T07:58:29;3.17;;;1.40;;
51852;SDS011;37894;53.172;6.598;2022-09-03T08:00:56;2.78;;;1.40;;
51852;SDS011;37894;53.172;6.598;2022-09-03T08:03:22;3.72;;;1.50;;
51852;SDS011;37894;53.172;6.598;2022-09-03T08:05:48;4.55;;;1.70;;
51852;SDS011;37894;53.172;6.598;2022-09-03T08:08:13;3.58;;;1.35;;
51852;SDS011;37894;53.172;6.598;2022-09-03T08:10:39;3.85;;;1.33;;
51852;SDS011;37894;53.172;6.598;2022-09-03T08:13:06;3.00;;;1.25;;
51852;SDS011;37894;53.172;6.598;2022-09-03T08:15:32;2.55;;;1.40;;
51852;SDS011;37894;53.172;6.598;2022-09-03T08:17:58;4.22;;;1.85;;
51852;SDS011;37894;53.172;6.598;2022-09-03T08:20:25;5.28;;;1.75;;
51852;SDS011;37894;53.172;6.598;2022-09-03T08:22:52;5.05;;;1.60;;
51852;SDS011;37894;53.172;6.598;2022-09-03T08:25:18;8.13;;;1.60;;
51852;SDS011;37894;53.172;6.598;2022-09-03T08:27:43;3.15;;;1.70;;
51852;SDS011;37894;53.172;6.598;2022-09-03T08:30:09;3.45;;;1.67;;
51852;SDS011;37894;53.172;6.598;2022-09-03T08:32:39;3.33;;;1.75;;
51852;SDS011;37894;53.172;6.598;2022-09-03T08:35:05;6.45;;;2.13;;
51852;SDS011;37894;53.172;6.598;2022-09-03T08:37:33;2.20;;;1.30;;
51852;SDS011;37894;53.172;6.598;2022-09-03T08:40:03;4.20;;;1.35;;
51852;SDS011;37894;53.172;6.598;2022-09-03T08:44:56;4.15;;;1.50;;
51852;SDS011;37894;53.172;6.598;2022-09-03T08:47:26;6.50;;;1.70;;
51852;SDS011;37894;53.172;6.598;2022-09-03T08:52:36;4.13;;;2.05;;
51852;SDS011;37894;53.172;6.598;2022-09-03T08:55:25;8.65;;;1.50;;
51852;SDS011;37894;53.172;6.598;2022-09-03T09:03:32;4.40;;;1.30;;
51852;SDS011;37894;53.172;6.598;2022-09-03T09:06:02;4.90;;;1.50;;
51852;SDS011;37894;53.172;6.598;2022-09-03T09:14:29;4.85;;;1.52;;
51852;SDS011;37894;53.172;6.598;2022-09-03T09:17:11;5.25;;;1.48;;
51852;SDS011;37894;53.172;6.598;2022-09-03T09:22:58;5.53;;;1.60;;
51852;SDS011;37894;53.172;6.598;2022-09-03T09:25:28;3.33;;;1.33;;
51852;SDS011;37894;53.172;6.598;2022-09-03T09:28:00;4.85;;;1.52;;
51852;SDS011;37894;53.172;6.598;2022-09-03T09:30:28;4.80;;;1.95;;
51852;SDS011;37894;53.172;6.598;2022-09-03T09:32:55;2.88;;;1.35;;
51852;SDS011;37894;53.172;6.598;2022-09-03T09:35:22;4.15;;;1.23;;
51852;SDS011;37894;53.172;6.598;2022-09-03T09:37:48;5.00;;;1.52;;
51852;SDS011;37894;53.172;6.598;2022-09-03T09:40:26;6.07;;;1.40;;
51852;SDS011;37894;53.172;6.598;2022-09-03T09:45:32;6.88;;;1.90;;
51852;SDS011;37894;53.172;6.598;2022-09-03T09:47:59;4.85;;;1.30;;
51852;SDS011;37894;53.172;6.598;2022-09-03T09:50:26;4.28;;;1.20;;
51852;SDS011;37894;53.172;6.598;2022-09-03T09:52:58;3.78;;;1.23;;
51852;SDS011;37894;53.172;6.598;2022-09-03T09:55:30;3.22;;;1.08;;
51852;SDS011;37894;53.172;6.598;2022-09-03T09:58:06;2.22;;;1.15;;
51852;SDS011;37894;53.172;6.598;2022-09-03T10:00:33;6.85;;;1.58;;
51852;SDS011;37894;53.172;6.598;2022-09-03T10:03:01;4.47;;;1.30;;
51852;SDS011;37894;53.172;6.598;2022-09-03T10:05:35;4.18;;;1.23;;
51852;SDS011;37894;53.172;6.598;2022-09-03T10:08:17;4.65;;;1.40;;
51852;SDS011;37894;53.172;6.598;2022-09-03T10:10:46;4.38;;;1.30;;
51852;SDS011;37894;53.172;6.598;2022-09-03T10:13:25;3.47;;;1.35;;
51852;SDS011;37894;53.172;6.598;2022-09-03T10:16:09;5.03;;;1.10;;
51852;SDS011;37894;53.172;6.598;2022-09-03T10:21:28;2.40;;;1.00;;
51852;SDS011;37894;53.172;6.598;2022-09-03T10:26:39;5.40;;;1.20;;
51852;SDS011;37894;53.172;6.598;2022-09-03T10:29:09;5.10;;;1.23;;
51852;SDS011;37894;53.172;6.598;2022-09-03T10:40:03;11.00;;;1.25;;
51852;SDS011;37894;53.172;6.598;2022-09-03T10:42:44;4.05;;;1.00;;
51852;SDS011;37894;53.172;6.598;2022-09-03T10:45:46;4.07;;;1.20;;
51852;SDS011;37894;53.172;6.598;2022-09-03T10:54:09;3.97;;;1.10;;
51852;SDS011;37894;53.172;6.598;2022-09-03T11:02:48;4.07;;;1.00;;
51852;SDS011;37894;53.172;6.598;2022-09-03T11:05:30;3.00;;;0.98;;
51852;SDS011;37894;53.172;6.598;2022-09-03T11:08:17;2.20;;;0.90;;
51852;SDS011;37894;53.172;6.598;2022-09-03T11:10:51;3.42;;;0.90;;
51852;SDS011;37894;53.172;6.598;2022-09-03T11:13:27;7.18;;;1.17;;
51852;SDS011;37894;53.172;6.598;2022-09-03T11:19:05;4.15;;;1.02;;
51852;SDS011;37894;53.172;6.598;2022-09-03T11:21:35;2.17;;;0.95;;
51852;SDS011;37894;53.172;6.598;2022-09-03T11:24:08;5.50;;;1.33;;
51852;SDS011;37894;53.172;6.598;2022-09-03T11:26:44;2.50;;;1.00;;
51852;SDS011;37894;53.172;6.598;2022-09-03T11:29:21;4.07;;;0.90;;
51852;SDS011;37894;53.172;6.598;2022-09-03T11:32:20;3.33;;;1.10;;
51852;SDS011;37894;53.172;6.598;2022-09-03T11:34:54;3.72;;;1.08;;
51852;SDS011;37894;53.172;6.598;2022-09-03T11:37:27;4.75;;;1.00;;
51852;SDS011;37894;53.172;6.598;2022-09-03T11:39:55;2.80;;;1.00;;
51852;SDS011;37894;53.172;6.598;2022-09-03T11:42:25;7.13;;;1.00;;
51852;SDS011;37894;53.172;6.598;2022-09-03T11:44:58;2.80;;;0.90;;
51852;SDS011;37894;53.172;6.598;2022-09-03T11:47:57;5.47;;;0.90;;
51852;SDS011;37894;53.172;6.598;2022-09-03T11:50:18;4.20;;;1.17;;
51852;SDS011;37894;53.172;6.598;2022-09-03T11:52:45;5.10;;;1.05;;
51852;SDS011;37894;53.172;6.598;2022-09-03T11:55:22;5.18;;;1.13;;
51852;SDS011;37894;53.172;6.598;2022-09-03T11:57:54;1.65;;;0.85;;
51852;SDS011;37894;53.172;6.598;2022-09-03T12:00:21;6.30;;;0.93;;
51852;SDS011;37894;53.172;6.598;2022-09-03T12:02:54;5.95;;;1.27;;
51852;SDS011;37894;53.172;6.598;2022-09-03T12:11:26;2.25;;;1.05;;
51852;SDS011;37894;53.172;6.598;2022-09-03T12:17:14;3.50;;;1.05;;
51852;SDS011;37894;53.172;6.598;2022-09-03T12:19:50;3.08;;;0.80;;
51852;SDS011;37894;53.172;6.598;2022-09-03T12:22:19;2.17;;;0.90;;
51852;SDS011;37894;53.172;6.598;2022-09-03T12:24:46;3.83;;;1.23;;
51852;SDS011;37894;53.172;6.598;2022-09-03T12:27:18;3.90;;;0.90;;
51852;SDS011;37894;53.172;6.598;2022-09-03T12:29:58;3.42;;;1.10;;
51852;SDS011;37894;53.172;6.598;2022-09-03T12:32:29;2.92;;;0.90;;
51852;SDS011;37894;53.172;6.598;2022-09-03T12:35:16;5.18;;;1.30;;
51852;SDS011;37894;53.172;6.598;2022-09-03T12:37:47;3.90;;;0.90;;
51852;SDS011;37894;53.172;6.598;2022-09-03T12:40:19;3.25;;;1.10;;
51852;SDS011;37894;53.172;6.598;2022-09-03T12:42:50;1.52;;;0.82;;
51852;SDS011;37894;53.172;6.598;2022-09-03T12:45:25;3.83;;;1.00;;
51852;SDS011;37894;53.172;6.598;2022-09-03T12:47:51;3.38;;;0.90;;
51852;SDS011;37894;53.172;6.598;2022-09-03T12:50:19;5.47;;;1.00;;
51852;SDS011;37894;53.172;6.598;2022-09-03T12:52:53;4.28;;;1.10;;
51852;SDS011;37894;53.172;6.598;2022-09-03T13:00:27;5.18;;;1.00;;
51852;SDS011;37894;53.172;6.598;2022-09-03T13:03:02;3.42;;;0.90;;
51852;SDS011;37894;53.172;6.598;2022-09-03T13:05:35;1.98;;;1.00;;
51852;SDS011;37894;53.172;6.598;2022-09-03T13:08:08;3.67;;;1.38;;
51852;SDS011;37894;53.172;6.598;2022-09-03T13:10:39;2.25;;;0.98;;
51852;SDS011;37894;53.172;6.598;2022-09-03T13:13:18;5.10;;;1.00;;
51852;SDS011;37894;53.172;6.598;2022-09-03T13:18:30;2.25;;;0.90;;
51852;SDS011;37894;53.172;6.598;2022-09-03T13:21:28;2.88;;;0.77;;
51852;SDS011;37894;53.172;6.598;2022-09-03T13:24:17;4.03;;;0.70;;
51852;SDS011;37894;53.172;6.598;2022-09-03T13:32:35;1.63;;;0.80;;
51852;SDS011;37894;53.172;6.598;2022-09-03T13:41:15;3.42;;;0.93;;
51852;SDS011;37894;53.172;6.598;2022-09-03T13:43:47;2.60;;;0.90;;
51852;SDS011;37894;53.172;6.598;2022-09-03T13:48:56;2.53;;;0.80;;
51852;SDS011;37894;53.172;6.598;2022-09-03T13:51:52;5.03;;;0.93;;
51852;SDS011;37894;53.172;6.598;2022-09-03T13:54:28;3.28;;;0.90;;
51852;SDS011;37894;53.172;6.598;2022-09-03T13:57:00;3.90;;;1.17;;
51852;SDS011;37894;53.172;6.598;2022-09-03T14:05:10;4.90;;;1.20;;
51852;SDS011;37894;53.172;6.598;2022-09-03T14:07:53;2.75;;;1.10;;
51852;SDS011;37894;53.172;6.598;2022-09-03T14:13:16;4.95;;;0.80;;
51852;SDS011;37894;53.172;6.598;2022-09-03T14:19:00;2.00;;;0.90;;
51852;SDS011;37894;53.172;6.598;2022-09-03T14:24:11;3.58;;;0.85;;
51852;SDS011;37894;53.172;6.598;2022-09-03T14:26:47;4.00;;;0.85;;
51852;SDS011;37894;53.172;6.598;2022-09-03T14:29:15;3.03;;;0.98;;
51852;SDS011;37894;53.172;6.598;2022-09-03T14:34:59;4.00;;;1.08;;
51852;SDS011;37894;53.172;6.598;2022-09-03T14:37:37;4.20;;;0.90;;
51852;SDS011;37894;53.172;6.598;2022-09-03T14:46:00;5.88;;;1.05;;
51852;SDS011;37894;53.172;6.598;2022-09-03T14:51:22;2.33;;;0.88;;
51852;SDS011;37894;53.172;6.598;2022-09-03T14:57:19;5.28;;;0.95;;
51852;SDS011;37894;53.172;6.598;2022-09-03T15:07:46;8.43;;;1.02;;
51852;SDS011;37894;53.172;6.598;2022-09-03T15:10:17;3.20;;;0.82;;
51852;SDS011;37894;53.172;6.598;2022-09-03T15:12:51;2.97;;;1.10;;
51852;SDS011;37894;53.172;6.598;2022-09-03T15:15:35;3.08;;;1.17;;
51852;SDS011;37894;53.172;6.598;2022-09-03T15:32:16;4.60;;;1.20;;
51852;SDS011;37894;53.172;6.598;2022-09-03T15:34:53;4.57;;;1.20;;
51852;SDS011;37894;53.172;6.598;2022-09-03T15:37:24;3.90;;;1.20;;
51852;SDS011;37894;53.172;6.598;2022-09-03T15:40:08;2.88;;;1.13;;
51852;SDS011;37894;53.172;6.598;2022-09-03T15:42:54;4.10;;;1.38;;
51852;SDS011;37894;53.172;6.598;2022-09-03T15:45:51;3.80;;;1.20;;
51852;SDS011;37894;53.172;6.598;2022-09-03T15:48:46;2.72;;;1.00;;
51852;SDS011;37894;53.172;6.598;2022-09-03T15:54:00;8.18;;;1.35;;
51852;SDS011;37894;53.172;6.598;2022-09-03T15:56:42;2.37;;;1.10;;
51852;SDS011;37894;53.172;6.598;2022-09-03T16:05:00;3.97;;;1.27;;
51852;SDS011;37894;53.172;6.598;2022-09-03T16:10:54;6.68;;;1.25;;
51852;SDS011;37894;53.172;6.598;2022-09-03T16:16:23;4.95;;;1.20;;
51852;SDS011;37894;53.172;6.598;2022-09-03T16:27:13;6.63;;;1.70;;
51852;SDS011;37894;53.172;6.598;2022-09-03T16:29:53;6.63;;;1.45;;
51852;SDS011;37894;53.172;6.598;2022-09-03T16:32:26;4.55;;;1.10;;
51852;SDS011;37894;53.172;6.598;2022-09-03T16:35:20;3.13;;;1.42;;
51852;SDS011;37894;53.172;6.598;2022-09-03T16:41:00;5.70;;;1.42;;
51852;SDS011;37894;53.172;6.598;2022-09-03T16:46:53;8.18;;;1.38;;
51852;SDS011;37894;53.172;6.598;2022-09-03T16:55:17;3.72;;;1.20;;
51852;SDS011;37894;53.172;6.598;2022-09-03T16:58:04;3.95;;;1.25;;
51852;SDS011;37894;53.172;6.598;2022-09-03T17:09:06;7.78;;;2.20;;
51852;SDS011;37894;53.172;6.598;2022-09-03T17:14:26;7.35;;;2.08;;
51852;SDS011;37894;53.172;6.598;2022-09-03T17:17:03;6.47;;;2.38;;
51852;SDS011;37894;53.172;6.598;2022-09-03T17:19:55;5.28;;;1.67;;
51852;SDS011;37894;53.172;6.598;2022-09-03T17:36:17;2.72;;;1.35;;
51852;SDS011;37894;53.172;6.598;2022-09-03T17:52:44;3.28;;;1.40;;
51852;SDS011;37894;53.172;6.598;2022-09-03T18:00:44;5.53;;;1.40;;
51852;SDS011;37894;53.172;6.598;2022-09-03T18:03:48;5.90;;;1.50;;
51852;SDS011;37894;53.172;6.598;2022-09-03T18:09:51;4.53;;;2.60;;
51852;SDS011;37894;53.172;6.598;2022-09-03T18:12:10;3.75;;;1.50;;
51852;SDS011;37894;53.172;6.598;2022-09-03T18:14:51;4.07;;;1.50;;
51852;SDS011;37894;53.172;6.598;2022-09-03T18:20:15;2.58;;;1.10;;
51852;SDS011;37894;53.172;6.598;2022-09-03T18:23:01;3.97;;;1.52;;
51852;SDS011;37894;53.172;6.598;2022-09-03T18:26:05;4.20;;;1.35;;
51852;SDS011;37894;53.172;6.598;2022-09-03T18:29:00;5.55;;;1.30;;
51852;SDS011;37894;53.172;6.598;2022-09-03T18:31:48;4.78;;;1.42;;
51852;SDS011;37894;53.172;6.598;2022-09-03T18:34:33;8.00;;;1.40;;
51852;SDS011;37894;53.172;6.598;2022-09-03T18:37:19;6.95;;;1.70;;
51852;SDS011;37894;53.172;6.598;2022-09-03T18:40:07;9.80;;;2.20;;
51852;SDS011;37894;53.172;6.598;2022-09-03T18:43:01;6.07;;;2.13;;
51852;SDS011;37894;53.172;6.598;2022-09-03T18:46:43;4.28;;;2.05;;
51852;SDS011;37894;53.172;6.598;2022-09-03T18:49:10;6.13;;;1.95;;
51852;SDS011;37894;53.172;6.598;2022-09-03T18:55:29;3.00;;;1.13;;
51852;SDS011;37894;53.172;6.598;2022-09-03T19:04:19;7.93;;;1.50;;
51852;SDS011;37894;53.172;6.598;2022-09-03T19:10:31;3.13;;;1.42;;
51852;SDS011;37894;53.172;6.598;2022-09-03T19:13:31;11.02;;;1.75;;
51852;SDS011;37894;53.172;6.598;2022-09-03T19:22:38;7.47;;;1.30;;
51852;SDS011;37894;53.172;6.598;2022-09-03T19:25:25;4.25;;;1.40;;
51852;SDS011;37894;53.172;6.598;2022-09-03T19:28:44;2.88;;;1.50;;
51852;SDS011;37894;53.172;6.598;2022-09-03T19:40:56;5.22;;;1.40;;
51852;SDS011;37894;53.172;6.598;2022-09-03T19:46:49;3.88;;;1.60;;
51852;SDS011;37894;53.172;6.598;2022-09-03T19:52:54;4.07;;;1.40;;
51852;SDS011;37894;53.172;6.598;2022-09-03T19:55:44;5.47;;;1.45;;
51852;SDS011;37894;53.172;6.598;2022-09-03T19:58:40;5.25;;;1.65;;
51852;SDS011;37894;53.172;6.598;2022-09-03T20:01:32;5.60;;;1.85;;
51852;SDS011;37894;53.172;6.598;2022-09-03T20:04:18;5.10;;;1.33;;
51852;SDS011;37894;53.172;6.598;2022-09-03T20:07:07;4.45;;;1.45;;
51852;SDS011;37894;53.172;6.598;2022-09-03T20:09:52;7.35;;;1.50;;
51852;SDS011;37894;53.172;6.598;2022-09-03T20:12:41;6.05;;;1.48;;
51852;SDS011;37894;53.172;6.598;2022-09-03T20:15:11;5.35;;;1.80;;
51852;SDS011;37894;53.172;6.598;2022-09-03T20:17:52;6.60;;;1.58;;
51852;SDS011;37894;53.172;6.598;2022-09-03T20:23:18;3.38;;;1.50;;
51852;SDS011;37894;53.172;6.598;2022-09-03T20:26:05;4.82;;;1.60;;
51852;SDS011;37894;53.172;6.598;2022-09-03T20:31:36;7.00;;;1.55;;
51852;SDS011;37894;53.172;6.598;2022-09-03T20:47:42;3.90;;;1.30;;
51852;SDS011;37894;53.172;6.598;2022-09-03T20:53:22;5.78;;;1.52;;
51852;SDS011;37894;53.172;6.598;2022-09-03T20:56:14;4.18;;;1.55;;
51852;SDS011;37894;53.172;6.598;2022-09-03T20:58:47;3.75;;;1.40;;
51852;SDS011;37894;53.172;6.598;2022-09-03T21:01:25;3.85;;;1.40;;
51852;SDS011;37894;53.172;6.598;2022-09-03T21:06:44;3.67;;;1.40;;
51852;SDS011;37894;53.172;6.598;2022-09-03T21:12:26;4.40;;;1.58;;
51852;SDS011;37894;53.172;6.598;2022-09-03T21:15:25;7.05;;;1.60;;
51852;SDS011;37894;53.172;6.598;2022-09-03T21:23:49;4.13;;;1.50;;
51852;SDS011;37894;53.172;6.598;2022-09-03T21:26:31;5.43;;;1.92;;
51852;SDS011;37894;53.172;6.598;2022-09-03T21:34:26;4.25;;;1.40;;